sensor_id;sensor_type;location;lat;lon;timestamp;temperature;humidity
24146;DHT22;12308;50.948;4.706;2023-02-10T00:00:11;7.30;99.90
24146;DHT22;12308;50.948;4.706;2023-02-10T00:02:37;7.10;99.90
24146;DHT22;12308;50.948;4.706;2023-02-10T00:05:02;7.00;99.90
24146;DHT22;12308;50.948;4.706;2023-02-10T00:07:28;6.90;99.90
24146;DHT22;12308;50.948;4.706;2023-02-10T00:09:54;6.90;99.90
24146;DHT22;12308;50.948;4.706;2023-02-10T00:12:19;7.00;99.90
24146;DHT22;12308;50.948;4.706;2023-02-10T00:14:45;7.10;99.90
24146;DHT22;12308;50.948;4.706;2023-02-10T00:17:10;7.10;99.90
24146;DHT22;12308;50.948;4.706;2023-02-10T00:19:38;7.00;99.90
24146;DHT22;12308;50.948;4.706;2023-02-10T00:22:04;7.00;99.90
24146;DHT22;12308;50.948;4.706;2023-02-10T00:24:29;7.20;99.90
24146;DHT22;12308;50.948;4.706;2023-02-10T00:26:55;7.10;99.90
24146;DHT22;12308;50.948;4.706;2023-02-10T00:29:21;7.10;99.90
24146;DHT22;12308;50.948;4.706;2023-02-10T00:31:46;6.90;99.90
24146;DHT22;12308;50.948;4.706;2023-02-10T00:34:15;6.90;99.90
24146;DHT22;12308;50.948;4.706;2023-02-10T00:36:41;6.80;99.90
24146;DHT22;12308;50.948;4.706;2023-02-10T00:39:07;6.90;99.90
24146;DHT22;12308;50.948;4.706;2023-02-10T00:41:32;7.10;99.90
24146;DHT22;12308;50.948;4.706;2023-02-10T00:43:58;7.10;99.90
24146;DHT22;12308;50.948;4.706;2023-02-10T00:46:24;7.20;99.90
24146;DHT22;12308;50.948;4.706;2023-02-10T00:48:50;7.20;99.90
24146;DHT22;12308;50.948;4.706;2023-02-10T00:51:16;7.20;99.90
24146;DHT22;12308;50.948;4.706;2023-02-10T00:53:42;7.30;99.90
24146;DHT22;12308;50.948;4.706;2023-02-10T00:56:09;7.30;99.90
24146;DHT22;12308;50.948;4.706;2023-02-10T00:58:35;7.20;99.90
24146;DHT22;12308;50.948;4.706;2023-02-10T01:01:01;7.20;99.90
24146;DHT22;12308;50.948;4.706;2023-02-10T01:03:27;7.10;99.90
24146;DHT22;12308;50.948;4.706;2023-02-10T01:05:52;7.10;99.90
24146;DHT22;12308;50.948;4.706;2023-02-10T01:08:18;7.10;99.90
24146;DHT22;12308;50.948;4.706;2023-02-10T01:10:44;7.10;99.90
24146;DHT22;12308;50.948;4.706;2023-02-10T01:13:11;7.20;99.90
24146;DHT22;12308;50.948;4.706;2023-02-10T01:15:45;7.10;99.90
24146;DHT22;12308;50.948;4.706;2023-02-10T01:18:12;7.30;99.90
24146;DHT22;12308;50.948;4.706;2023-02-10T01:20:39;7.20;99.90
24146;DHT22;12308;50.948;4.706;2023-02-10T01:23:05;7.20;99.90
24146;DHT22;12308;50.948;4.706;2023-02-10T01:25:32;7.20;99.90
24146;DHT22;12308;50.948;4.706;2023-02-10T01:27:59;7.20;99.90
24146;DHT22;12308;50.948;4.706;2023-02-10T01:30:25;7.00;99.90
24146;DHT22;12308;50.948;4.706;2023-02-10T01:32:54;6.90;99.90
24146;DHT22;12308;50.948;4.706;2023-02-10T01:35:20;6.90;99.90
24146;DHT22;12308;50.948;4.706;2023-02-10T01:37:46;7.10;99.90
24146;DHT22;12308;50.948;4.706;2023-02-10T01:40:12;7.10;99.90
24146;DHT22;12308;50.948;4.706;2023-02-10T01:42:37;7.00;99.90
24146;DHT22;12308;50.948;4.706;2023-02-10T01:45:12;6.90;99.90
24146;DHT22;12308;50.948;4.706;2023-02-10T01:47:40;6.90;99.90
24146;DHT22;12308;50.948;4.706;2023-02-10T01:50:06;6.80;99.90
24146;DHT22;12308;50.948;4.706;2023-02-10T01:52:32;6.80;99.90
24146;DHT22;12308;50.948;4.706;2023-02-10T01:55:13;6.70;99.90
24146;DHT22;12308;50.948;4.706;2023-02-10T01:57:42;6.60;99.90
24146;DHT22;12308;50.948;4.706;2023-02-10T02:00:09;6.60;99.90
24146;DHT22;12308;50.948;4.706;2023-02-10T02:02:35;6.50;99.90
24146;DHT22;12308;50.948;4.706;2023-02-10T02:05:04;6.60;99.90
24146;DHT22;12308;50.948;4.706;2023-02-10T02:07:34;6.50;99.90
24146;DHT22;12308;50.948;4.706;2023-02-10T02:10:02;6.60;99.90
24146;DHT22;12308;50.948;4.706;2023-02-10T02:12:42;6.60;99.90
24146;DHT22;12308;50.948;4.706;2023-02-10T02:26:30;6.50;99.90
24146;DHT22;12308;50.948;4.706;2023-02-10T02:34:13;6.40;99.90
24146;DHT22;12308;50.948;4.706;2023-02-10T02:37:12;6.40;99.90
24146;DHT22;12308;50.948;4.706;2023-02-10T02:39:41;6.30;99.90
24146;DHT22;12308;50.948;4.706;2023-02-10T02:42:15;6.30;99.90
24146;DHT22;12308;50.948;4.706;2023-02-10T02:44:43;6.20;99.90
24146;DHT22;12308;50.948;4.706;2023-02-10T03:00:59;5.60;99.90
24146;DHT22;12308;50.948;4.706;2023-02-10T03:03:33;5.50;99.90
24146;DHT22;12308;50.948;4.706;2023-02-10T03:06:00;5.30;99.90
24146;DHT22;12308;50.948;4.706;2023-02-10T03:08:28;5.30;99.90
24146;DHT22;12308;50.948;4.706;2023-02-10T03:10:55;5.20;99.90
24146;DHT22;12308;50.948;4.706;2023-02-10T03:13:20;5.10;99.90
24146;DHT22;12308;50.948;4.706;2023-02-10T03:15:46;5.10;99.90
24146;DHT22;12308;50.948;4.706;2023-02-10T03:18:12;5.00;99.90
24146;DHT22;12308;50.948;4.706;2023-02-10T03:20:38;4.90;99.90
24146;DHT22;12308;50.948;4.706;2023-02-10T03:23:04;4.90;99.90
24146;DHT22;12308;50.948;4.706;2023-02-10T03:25:30;4.90;99.90
24146;DHT22;12308;50.948;4.706;2023-02-10T03:27:56;4.90;99.90
24146;DHT22;12308;50.948;4.706;2023-02-10T03:30:21;4.80;99.90
24146;DHT22;12308;50.948;4.706;2023-02-10T03:32:47;4.70;99.90
24146;DHT22;12308;50.948;4.706;2023-02-10T03:35:14;4.70;99.90
24146;DHT22;12308;50.948;4.706;2023-02-10T03:37:40;4.80;99.90
24146;DHT22;12308;50.948;4.706;2023-02-10T03:40:06;4.80;99.90
24146;DHT22;12308;50.948;4.706;2023-02-10T03:42:32;4.80;99.90
24146;DHT22;12308;50.948;4.706;2023-02-10T03:44:58;4.90;99.90
24146;DHT22;12308;50.948;4.706;2023-02-10T03:47:23;4.80;99.90
24146;DHT22;12308;50.948;4.706;2023-02-10T03:49:49;4.80;99.90
24146;DHT22;12308;50.948;4.706;2023-02-10T03:52:14;4.60;99.90
24146;DHT22;12308;50.948;4.706;2023-02-10T03:54:40;4.50;99.90
24146;DHT22;12308;50.948;4.706;2023-02-10T03:57:06;4.50;99.90
24146;DHT22;12308;50.948;4.706;2023-02-10T03:59:32;4.40;99.90
24146;DHT22;12308;50.948;4.706;2023-02-10T04:01:58;4.40;99.90
24146;DHT22;12308;50.948;4.706;2023-02-10T04:04:24;4.10;99.90
24146;DHT22;12308;50.948;4.706;2023-02-10T04:06:49;3.90;99.90
24146;DHT22;12308;50.948;4.706;2023-02-10T04:09:15;3.90;99.90
24146;DHT22;12308;50.948;4.706;2023-02-10T04:11:41;3.80;99.90
24146;DHT22;12308;50.948;4.706;2023-02-10T04:14:06;3.90;99.90
24146;DHT22;12308;50.948;4.706;2023-02-10T04:16:32;3.80;99.90
24146;DHT22;12308;50.948;4.706;2023-02-10T04:18:59;3.80;99.90
24146;DHT22;12308;50.948;4.706;2023-02-10T04:21:25;3.80;99.90
24146;DHT22;12308;50.948;4.706;2023-02-10T04:23:51;3.80;99.90
24146;DHT22;12308;50.948;4.706;2023-02-10T04:26:17;3.70;99.90
24146;DHT22;12308;50.948;4.706;2023-02-10T04:28:43;3.70;99.90
24146;DHT22;12308;50.948;4.706;2023-02-10T04:31:09;3.80;99.90
24146;DHT22;12308;50.948;4.706;2023-02-10T04:33:36;3.80;99.90
24146;DHT22;12308;50.948;4.706;2023-02-10T04:36:02;3.70;99.90
24146;DHT22;12308;50.948;4.706;2023-02-10T04:38:28;3.60;99.90
24146;DHT22;12308;50.948;4.706;2023-02-10T04:40:54;3.60;99.90
24146;DHT22;12308;50.948;4.706;2023-02-10T04:43:20;3.60;99.90
24146;DHT22;12308;50.948;4.706;2023-02-10T04:45:46;3.60;99.90
24146;DHT22;12308;50.948;4.706;2023-02-10T04:48:12;3.50;99.90
24146;DHT22;12308;50.948;4.706;2023-02-10T04:50:39;3.40;99.90
24146;DHT22;12308;50.948;4.706;2023-02-10T04:53:06;3.30;99.90
24146;DHT22;12308;50.948;4.706;2023-02-10T04:55:33;3.30;99.90
24146;DHT22;12308;50.948;4.706;2023-02-10T04:57:59;3.20;99.90
24146;DHT22;12308;50.948;4.706;2023-02-10T05:00:24;3.20;99.90
24146;DHT22;12308;50.948;4.706;2023-02-10T05:02:50;3.10;99.90
24146;DHT22;12308;50.948;4.706;2023-02-10T05:05:16;3.00;99.90
24146;DHT22;12308;50.948;4.706;2023-02-10T05:07:42;3.00;99.90
24146;DHT22;12308;50.948;4.706;2023-02-10T05:10:07;2.80;99.90
24146;DHT22;12308;50.948;4.706;2023-02-10T05:12:33;2.70;99.90
24146;DHT22;12308;50.948;4.706;2023-02-10T05:14:59;2.70;99.90
24146;DHT22;12308;50.948;4.706;2023-02-10T05:17:24;2.60;99.90
24146;DHT22;12308;50.948;4.706;2023-02-10T05:19:50;2.60;99.90
24146;DHT22;12308;50.948;4.706;2023-02-10T05:22:16;2.40;99.90
24146;DHT22;12308;50.948;4.706;2023-02-10T05:24:41;2.50;99.90
24146;DHT22;12308;50.948;4.706;2023-02-10T05:27:07;2.50;99.90
24146;DHT22;12308;50.948;4.706;2023-02-10T05:29:33;2.60;99.90
24146;DHT22;12308;50.948;4.706;2023-02-10T05:31:58;2.50;99.90
24146;DHT22;12308;50.948;4.706;2023-02-10T05:34:24;2.60;99.90
24146;DHT22;12308;50.948;4.706;2023-02-10T05:36:51;2.50;99.90
24146;DHT22;12308;50.948;4.706;2023-02-10T05:39:17;2.40;99.90
24146;DHT22;12308;50.948;4.706;2023-02-10T05:41:53;2.40;99.90
24146;DHT22;12308;50.948;4.706;2023-02-10T05:44:19;2.30;99.90
24146;DHT22;12308;50.948;4.706;2023-02-10T05:46:45;2.30;99.90
24146;DHT22;12308;50.948;4.706;2023-02-10T05:49:11;2.30;99.90
24146;DHT22;12308;50.948;4.706;2023-02-10T05:51:37;2.30;99.90
24146;DHT22;12308;50.948;4.706;2023-02-10T05:54:03;2.20;99.90
24146;DHT22;12308;50.948;4.706;2023-02-10T05:56:29;2.20;99.90
24146;DHT22;12308;50.948;4.706;2023-02-10T05:58:55;2.10;99.90
24146;DHT22;12308;50.948;4.706;2023-02-10T06:01:21;2.10;99.90
24146;DHT22;12308;50.948;4.706;2023-02-10T06:03:46;2.20;99.90
24146;DHT22;12308;50.948;4.706;2023-02-10T06:06:12;2.30;99.90
24146;DHT22;12308;50.948;4.706;2023-02-10T06:08:38;2.30;99.90
24146;DHT22;12308;50.948;4.706;2023-02-10T06:11:04;2.20;99.90
24146;DHT22;12308;50.948;4.706;2023-02-10T06:13:29;2.30;99.90
24146;DHT22;12308;50.948;4.706;2023-02-10T06:15:55;2.30;99.90
24146;DHT22;12308;50.948;4.706;2023-02-10T06:18:21;2.40;99.90
24146;DHT22;12308;50.948;4.706;2023-02-10T06:20:47;2.20;99.90
24146;DHT22;12308;50.948;4.706;2023-02-10T06:23:14;2.30;99.90
24146;DHT22;12308;50.948;4.706;2023-02-10T06:25:39;2.30;99.90
24146;DHT22;12308;50.948;4.706;2023-02-10T06:28:05;2.20;99.90
24146;DHT22;12308;50.948;4.706;2023-02-10T06:30:31;2.10;99.90
24146;DHT22;12308;50.948;4.706;2023-02-10T06:32:56;2.20;99.90
24146;DHT22;12308;50.948;4.706;2023-02-10T06:35:22;2.20;99.90
24146;DHT22;12308;50.948;4.706;2023-02-10T06:37:48;2.10;99.90
24146;DHT22;12308;50.948;4.706;2023-02-10T06:40:14;2.10;99.90
24146;DHT22;12308;50.948;4.706;2023-02-10T06:42:39;2.10;99.90
24146;DHT22;12308;50.948;4.706;2023-02-10T06:45:05;2.10;99.90
24146;DHT22;12308;50.948;4.706;2023-02-10T06:47:34;2.00;99.90
24146;DHT22;12308;50.948;4.706;2023-02-10T06:50:00;2.10;99.90
24146;DHT22;12308;50.948;4.706;2023-02-10T06:52:26;2.10;99.90
24146;DHT22;12308;50.948;4.706;2023-02-10T06:54:52;2.10;99.90
24146;DHT22;12308;50.948;4.706;2023-02-10T06:57:18;2.00;99.90
24146;DHT22;12308;50.948;4.706;2023-02-10T06:59:44;2.00;99.90
24146;DHT22;12308;50.948;4.706;2023-02-10T07:02:13;1.90;99.90
24146;DHT22;12308;50.948;4.706;2023-02-10T07:04:38;2.00;99.90
24146;DHT22;12308;50.948;4.706;2023-02-10T07:07:04;2.10;99.90
24146;DHT22;12308;50.948;4.706;2023-02-10T07:09:30;2.10;99.90
24146;DHT22;12308;50.948;4.706;2023-02-10T07:11:57;2.20;99.90
24146;DHT22;12308;50.948;4.706;2023-02-10T07:14:23;2.20;99.90
24146;DHT22;12308;50.948;4.706;2023-02-10T07:16:49;2.30;99.90
24146;DHT22;12308;50.948;4.706;2023-02-10T07:19:14;2.30;99.90
24146;DHT22;12308;50.948;4.706;2023-02-10T07:21:40;2.40;99.90
24146;DHT22;12308;50.948;4.706;2023-02-10T07:24:06;2.40;99.90
24146;DHT22;12308;50.948;4.706;2023-02-10T07:26:32;2.50;99.90
24146;DHT22;12308;50.948;4.706;2023-02-10T07:28:57;2.50;99.90
24146;DHT22;12308;50.948;4.706;2023-02-10T07:31:23;2.50;99.90
24146;DHT22;12308;50.948;4.706;2023-02-10T07:33:49;2.60;99.90
24146;DHT22;12308;50.948;4.706;2023-02-10T07:36:15;2.70;99.90
24146;DHT22;12308;50.948;4.706;2023-02-10T07:38:40;2.70;99.90
24146;DHT22;12308;50.948;4.706;2023-02-10T07:41:07;2.70;99.90
24146;DHT22;12308;50.948;4.706;2023-02-10T07:43:33;2.60;99.90
24146;DHT22;12308;50.948;4.706;2023-02-10T07:45:58;2.70;99.90
24146;DHT22;12308;50.948;4.706;2023-02-10T07:48:24;2.80;99.90
24146;DHT22;12308;50.948;4.706;2023-02-10T07:50:50;2.90;99.90
24146;DHT22;12308;50.948;4.706;2023-02-10T07:53:18;3.00;99.90
24146;DHT22;12308;50.948;4.706;2023-02-10T07:55:44;3.10;99.90
24146;DHT22;12308;50.948;4.706;2023-02-10T07:58:09;3.10;99.90
24146;DHT22;12308;50.948;4.706;2023-02-10T08:00:35;3.10;99.90
24146;DHT22;12308;50.948;4.706;2023-02-10T08:03:01;3.20;99.90
24146;DHT22;12308;50.948;4.706;2023-02-10T08:05:26;3.30;99.90
24146;DHT22;12308;50.948;4.706;2023-02-10T08:07:54;3.30;99.90
24146;DHT22;12308;50.948;4.706;2023-02-10T08:10:20;3.40;99.90
24146;DHT22;12308;50.948;4.706;2023-02-10T08:12:45;3.60;99.90
24146;DHT22;12308;50.948;4.706;2023-02-10T08:15:14;3.60;99.90
24146;DHT22;12308;50.948;4.706;2023-02-10T08:17:44;3.70;99.90
24146;DHT22;12308;50.948;4.706;2023-02-10T08:20:10;3.80;99.90
24146;DHT22;12308;50.948;4.706;2023-02-10T08:22:36;3.90;99.90
24146;DHT22;12308;50.948;4.706;2023-02-10T08:25:03;4.00;99.90
24146;DHT22;12308;50.948;4.706;2023-02-10T08:27:28;4.00;99.90
24146;DHT22;12308;50.948;4.706;2023-02-10T08:29:54;3.90;99.90
24146;DHT22;12308;50.948;4.706;2023-02-10T08:32:21;3.90;99.90
24146;DHT22;12308;50.948;4.706;2023-02-10T08:34:48;3.90;99.90
24146;DHT22;12308;50.948;4.706;2023-02-10T08:37:15;3.90;99.90
24146;DHT22;12308;50.948;4.706;2023-02-10T08:39:41;3.90;99.90
24146;DHT22;12308;50.948;4.706;2023-02-10T08:42:07;3.90;99.90
24146;DHT22;12308;50.948;4.706;2023-02-10T08:44:33;3.90;99.90
24146;DHT22;12308;50.948;4.706;2023-02-10T08:46:58;4.00;99.90
24146;DHT22;12308;50.948;4.706;2023-02-10T08:49:24;4.00;99.90
24146;DHT22;12308;50.948;4.706;2023-02-10T08:51:53;4.00;99.90
24146;DHT22;12308;50.948;4.706;2023-02-10T08:54:19;4.20;99.90
24146;DHT22;12308;50.948;4.706;2023-02-10T08:56:45;4.30;99.90
24146;DHT22;12308;50.948;4.706;2023-02-10T08:59:11;4.30;99.90
24146;DHT22;12308;50.948;4.706;2023-02-10T09:01:37;4.50;99.90
24146;DHT22;12308;50.948;4.706;2023-02-10T09:04:02;4.70;99.90
24146;DHT22;12308;50.948;4.706;2023-02-10T09:06:34;4.80;99.90
24146;DHT22;12308;50.948;4.706;2023-02-10T09:09:09;4.90;99.90
24146;DHT22;12308;50.948;4.706;2023-02-10T09:11:36;5.00;99.90
24146;DHT22;12308;50.948;4.706;2023-02-10T09:14:02;5.10;99.90
24146;DHT22;12308;50.948;4.706;2023-02-10T09:16:28;5.00;99.90
24146;DHT22;12308;50.948;4.706;2023-02-10T09:18:53;5.30;99.90
24146;DHT22;12308;50.948;4.706;2023-02-10T09:21:19;5.40;99.90
24146;DHT22;12308;50.948;4.706;2023-02-10T09:23:45;5.30;99.90
24146;DHT22;12308;50.948;4.706;2023-02-10T09:26:11;5.40;99.90
24146;DHT22;12308;50.948;4.706;2023-02-10T09:28:37;5.50;99.90
24146;DHT22;12308;50.948;4.706;2023-02-10T09:31:07;5.60;99.90
24146;DHT22;12308;50.948;4.706;2023-02-10T09:33:33;5.60;99.90
24146;DHT22;12308;50.948;4.706;2023-02-10T09:36:01;5.80;99.90
24146;DHT22;12308;50.948;4.706;2023-02-10T09:38:27;5.80;99.90
24146;DHT22;12308;50.948;4.706;2023-02-10T09:41:27;5.80;99.90
24146;DHT22;12308;50.948;4.706;2023-02-10T09:54:51;5.70;99.90
24146;DHT22;12308;50.948;4.706;2023-02-10T09:57:21;5.60;99.90
24146;DHT22;12308;50.948;4.706;2023-02-10T09:59:50;5.60;99.90
24146;DHT22;12308;50.948;4.706;2023-02-10T10:02:24;5.70;99.90
24146;DHT22;12308;50.948;4.706;2023-02-10T10:04:52;5.70;99.90
24146;DHT22;12308;50.948;4.706;2023-02-10T10:07:26;5.60;99.90
24146;DHT22;12308;50.948;4.706;2023-02-10T10:10:02;5.70;99.90
24146;DHT22;12308;50.948;4.706;2023-02-10T10:12:28;5.80;99.90
24146;DHT22;12308;50.948;4.706;2023-02-10T10:14:54;5.80;99.90
24146;DHT22;12308;50.948;4.706;2023-02-10T10:20:50;5.80;99.90
24146;DHT22;12308;50.948;4.706;2023-02-10T10:31:33;6.10;99.90
24146;DHT22;12308;50.948;4.706;2023-02-10T10:34:15;6.20;99.90
24146;DHT22;12308;50.948;4.706;2023-02-10T10:36:42;6.40;99.90
24146;DHT22;12308;50.948;4.706;2023-02-10T10:39:24;6.80;99.90
24146;DHT22;12308;50.948;4.706;2023-02-10T10:41:53;7.00;99.90
24146;DHT22;12308;50.948;4.706;2023-02-10T10:44:19;7.30;99.90
24146;DHT22;12308;50.948;4.706;2023-02-10T10:47:29;7.40;99.90
24146;DHT22;12308;50.948;4.706;2023-02-10T10:49:37;7.50;99.90
24146;DHT22;12308;50.948;4.706;2023-02-10T10:52:23;7.50;99.90
24146;DHT22;12308;50.948;4.706;2023-02-10T10:54:50;7.40;99.90
24146;DHT22;12308;50.948;4.706;2023-02-10T10:57:17;7.30;99.90
24146;DHT22;12308;50.948;4.706;2023-02-10T10:59:48;7.40;99.90
24146;DHT22;12308;50.948;4.706;2023-02-10T11:02:18;7.40;99.90
24146;DHT22;12308;50.948;4.706;2023-02-10T11:04:44;7.50;99.90
24146;DHT22;12308;50.948;4.706;2023-02-10T11:07:16;7.60;99.90
24146;DHT22;12308;50.948;4.706;2023-02-10T11:09:50;7.40;99.90
24146;DHT22;12308;50.948;4.706;2023-02-10T11:12:32;7.50;99.90
24146;DHT22;12308;50.948;4.706;2023-02-10T11:14:59;7.50;99.90
24146;DHT22;12308;50.948;4.706;2023-02-10T11:17:39;7.70;99.90
24146;DHT22;12308;50.948;4.706;2023-02-10T11:20:29;7.70;99.90
24146;DHT22;12308;50.948;4.706;2023-02-10T11:23:04;7.80;99.90
24146;DHT22;12308;50.948;4.706;2023-02-10T11:25:37;7.70;99.90
24146;DHT22;12308;50.948;4.706;2023-02-10T11:28:05;7.50;99.90
24146;DHT22;12308;50.948;4.706;2023-02-10T11:30:36;7.50;99.90
24146;DHT22;12308;50.948;4.706;2023-02-10T11:33:03;7.60;99.90
24146;DHT22;12308;50.948;4.706;2023-02-10T11:35:29;7.60;99.90
24146;DHT22;12308;50.948;4.706;2023-02-10T11:38:05;7.70;99.90
24146;DHT22;12308;50.948;4.706;2023-02-10T11:40:49;7.60;99.90
24146;DHT22;12308;50.948;4.706;2023-02-10T11:43:16;7.90;99.90
24146;DHT22;12308;50.948;4.706;2023-02-10T11:45:53;8.20;99.90
24146;DHT22;12308;50.948;4.706;2023-02-10T11:48:22;8.40;99.90
24146;DHT22;12308;50.948;4.706;2023-02-10T11:50:48;8.40;99.90
24146;DHT22;12308;50.948;4.706;2023-02-10T11:53:25;8.30;99.90
24146;DHT22;12308;50.948;4.706;2023-02-10T11:56:38;8.20;99.90
24146;DHT22;12308;50.948;4.706;2023-02-10T11:58:55;8.40;99.90
24146;DHT22;12308;50.948;4.706;2023-02-10T12:16:24;8.30;99.90
24146;DHT22;12308;50.948;4.706;2023-02-10T12:19:03;8.20;99.90
24146;DHT22;12308;50.948;4.706;2023-02-10T12:21:45;8.10;99.90
24146;DHT22;12308;50.948;4.706;2023-02-10T12:27:41;7.90;99.90
24146;DHT22;12308;50.948;4.706;2023-02-10T12:33:07;7.90;99.90
24146;DHT22;12308;50.948;4.706;2023-02-10T12:38:43;8.00;99.90
24146;DHT22;12308;50.948;4.706;2023-02-10T12:52:26;8.30;99.90
24146;DHT22;12308;50.948;4.706;2023-02-10T12:55:00;8.50;99.90
24146;DHT22;12308;50.948;4.706;2023-02-10T12:57:41;8.70;99.90
24146;DHT22;12308;50.948;4.706;2023-02-10T13:03:32;8.70;99.90
24146;DHT22;12308;50.948;4.706;2023-02-10T13:08:49;8.90;99.90
24146;DHT22;12308;50.948;4.706;2023-02-10T13:13:51;9.40;99.90
24146;DHT22;12308;50.948;4.706;2023-02-10T13:16:24;9.70;99.90
24146;DHT22;12308;50.948;4.706;2023-02-10T13:19:00;9.80;99.90
24146;DHT22;12308;50.948;4.706;2023-02-10T13:21:34;9.50;99.90
24146;DHT22;12308;50.948;4.706;2023-02-10T13:24:08;9.40;99.90
24146;DHT22;12308;50.948;4.706;2023-02-10T13:27:00;9.30;99.90
24146;DHT22;12308;50.948;4.706;2023-02-10T13:29:36;9.10;99.90
24146;DHT22;12308;50.948;4.706;2023-02-10T13:34:44;9.20;99.90
24146;DHT22;12308;50.948;4.706;2023-02-10T13:39:50;9.20;99.90
24146;DHT22;12308;50.948;4.706;2023-02-10T13:42:26;9.30;99.90
24146;DHT22;12308;50.948;4.706;2023-02-10T13:45:06;9.30;99.90
24146;DHT22;12308;50.948;4.706;2023-02-10T13:47:34;9.10;99.90
24146;DHT22;12308;50.948;4.706;2023-02-10T13:50:06;8.90;99.90
24146;DHT22;12308;50.948;4.706;2023-02-10T13:52:34;8.90;99.90
24146;DHT22;12308;50.948;4.706;2023-02-10T13:55:28;9.00;99.90
24146;DHT22;12308;50.948;4.706;2023-02-10T13:58:27;9.00;99.90
24146;DHT22;12308;50.948;4.706;2023-02-10T14:00:55;9.00;99.90
24146;DHT22;12308;50.948;4.706;2023-02-10T14:03:27;9.20;99.90
24146;DHT22;12308;50.948;4.706;2023-02-10T14:05:54;9.00;99.90
24146;DHT22;12308;50.948;4.706;2023-02-10T14:13:31;8.90;99.90
24146;DHT22;12308;50.948;4.706;2023-02-10T14:16:06;8.90;99.90
24146;DHT22;12308;50.948;4.706;2023-02-10T14:18:36;8.80;99.90
24146;DHT22;12308;50.948;4.706;2023-02-10T14:21:08;8.90;99.90
24146;DHT22;12308;50.948;4.706;2023-02-10T14:23:37;8.70;99.90
24146;DHT22;12308;50.948;4.706;2023-02-10T14:26:19;8.60;99.90
24146;DHT22;12308;50.948;4.706;2023-02-10T14:28:52;8.50;99.90
24146;DHT22;12308;50.948;4.706;2023-02-10T14:31:30;8.60;99.90
24146;DHT22;12308;50.948;4.706;2023-02-10T14:34:00;8.50;99.90
24146;DHT22;12308;50.948;4.706;2023-02-10T14:36:26;8.70;99.90
24146;DHT22;12308;50.948;4.706;2023-02-10T14:38:55;8.70;99.90
24146;DHT22;12308;50.948;4.706;2023-02-10T14:41:21;8.70;99.90
24146;DHT22;12308;50.948;4.706;2023-02-10T14:43:48;8.70;99.90
24146;DHT22;12308;50.948;4.706;2023-02-10T14:46:32;8.60;99.90
24146;DHT22;12308;50.948;4.706;2023-02-10T14:48:59;8.40;99.90
24146;DHT22;12308;50.948;4.706;2023-02-10T14:51:27;8.30;99.90
24146;DHT22;12308;50.948;4.706;2023-02-10T14:53:53;8.40;99.90
24146;DHT22;12308;50.948;4.706;2023-02-10T14:56:24;8.30;99.90
24146;DHT22;12308;50.948;4.706;2023-02-10T14:58:50;8.40;99.90
24146;DHT22;12308;50.948;4.706;2023-02-10T15:01:45;8.50;99.90
24146;DHT22;12308;50.948;4.706;2023-02-10T15:04:15;8.60;99.90
24146;DHT22;12308;50.948;4.706;2023-02-10T15:06:44;8.50;99.90
24146;DHT22;12308;50.948;4.706;2023-02-10T15:09:17;8.50;99.90
24146;DHT22;12308;50.948;4.706;2023-02-10T15:11:50;8.50;99.90
24146;DHT22;12308;50.948;4.706;2023-02-10T15:17:47;8.70;99.90
24146;DHT22;12308;50.948;4.706;2023-02-10T15:38:57;8.60;99.90
24146;DHT22;12308;50.948;4.706;2023-02-10T15:41:32;8.50;99.90
24146;DHT22;12308;50.948;4.706;2023-02-10T15:43:59;8.60;99.90
24146;DHT22;12308;50.948;4.706;2023-02-10T15:46:28;8.70;99.90
24146;DHT22;12308;50.948;4.706;2023-02-10T15:49:07;8.60;99.90
24146;DHT22;12308;50.948;4.706;2023-02-10T15:51:38;8.40;99.90
24146;DHT22;12308;50.948;4.706;2023-02-10T15:54:04;8.40;99.90
24146;DHT22;12308;50.948;4.706;2023-02-10T15:56:30;8.50;99.90
24146;DHT22;12308;50.948;4.706;2023-02-10T15:58:55;8.50;99.90
24146;DHT22;12308;50.948;4.706;2023-02-10T16:01:21;8.50;99.90
24146;DHT22;12308;50.948;4.706;2023-02-10T16:03:47;8.60;99.90
24146;DHT22;12308;50.948;4.706;2023-02-10T16:06:14;8.60;99.90
24146;DHT22;12308;50.948;4.706;2023-02-10T16:08:41;8.50;99.90
24146;DHT22;12308;50.948;4.706;2023-02-10T16:11:09;8.50;99.90
24146;DHT22;12308;50.948;4.706;2023-02-10T16:13:35;8.50;99.90
24146;DHT22;12308;50.948;4.706;2023-02-10T16:16:01;8.40;99.90
24146;DHT22;12308;50.948;4.706;2023-02-10T16:18:28;8.20;99.90
24146;DHT22;12308;50.948;4.706;2023-02-10T16:20:54;8.20;99.90
24146;DHT22;12308;50.948;4.706;2023-02-10T16:23:20;8.10;99.90
24146;DHT22;12308;50.948;4.706;2023-02-10T16:25:47;8.20;99.90
24146;DHT22;12308;50.948;4.706;2023-02-10T16:28:16;8.10;99.90
24146;DHT22;12308;50.948;4.706;2023-02-10T16:30:42;8.10;99.90
24146;DHT22;12308;50.948;4.706;2023-02-10T16:33:09;8.20;99.90
24146;DHT22;12308;50.948;4.706;2023-02-10T16:35:35;8.20;99.90
24146;DHT22;12308;50.948;4.706;2023-02-10T16:38:00;8.10;99.90
24146;DHT22;12308;50.948;4.706;2023-02-10T16:40:29;8.00;99.90
24146;DHT22;12308;50.948;4.706;2023-02-10T16:42:55;7.90;99.90
24146;DHT22;12308;50.948;4.706;2023-02-10T16:45:26;7.80;99.90
24146;DHT22;12308;50.948;4.706;2023-02-10T16:47:52;8.00;99.90
24146;DHT22;12308;50.948;4.706;2023-02-10T16:52:58;7.90;99.90
24146;DHT22;12308;50.948;4.706;2023-02-10T16:55:23;7.80;99.90
24146;DHT22;12308;50.948;4.706;2023-02-10T16:57:51;7.70;99.90
24146;DHT22;12308;50.948;4.706;2023-02-10T17:00:17;7.70;99.90
24146;DHT22;12308;50.948;4.706;2023-02-10T17:02:43;7.70;99.90
24146;DHT22;12308;50.948;4.706;2023-02-10T17:05:09;7.60;99.90
24146;DHT22;12308;50.948;4.706;2023-02-10T17:07:36;7.50;99.90
24146;DHT22;12308;50.948;4.706;2023-02-10T17:10:04;7.50;99.90
24146;DHT22;12308;50.948;4.706;2023-02-10T17:12:30;7.40;99.90
24146;DHT22;12308;50.948;4.706;2023-02-10T17:14:56;7.30;99.90
24146;DHT22;12308;50.948;4.706;2023-02-10T17:17:23;7.30;99.90
24146;DHT22;12308;50.948;4.706;2023-02-10T17:19:48;7.30;99.90
24146;DHT22;12308;50.948;4.706;2023-02-10T17:22:14;7.20;99.90
24146;DHT22;12308;50.948;4.706;2023-02-10T17:24:39;7.30;99.90
24146;DHT22;12308;50.948;4.706;2023-02-10T17:27:05;7.40;99.90
24146;DHT22;12308;50.948;4.706;2023-02-10T17:29:31;7.40;99.90
24146;DHT22;12308;50.948;4.706;2023-02-10T17:31:57;7.40;99.90
24146;DHT22;12308;50.948;4.706;2023-02-10T17:34:22;7.50;99.90
24146;DHT22;12308;50.948;4.706;2023-02-10T17:36:48;7.50;99.90
24146;DHT22;12308;50.948;4.706;2023-02-10T17:39:16;7.40;99.90
24146;DHT22;12308;50.948;4.706;2023-02-10T17:41:44;7.50;99.90
24146;DHT22;12308;50.948;4.706;2023-02-10T17:44:10;7.60;99.90
24146;DHT22;12308;50.948;4.706;2023-02-10T17:46:36;7.90;99.90
24146;DHT22;12308;50.948;4.706;2023-02-10T17:49:01;7.80;99.90
24146;DHT22;12308;50.948;4.706;2023-02-10T17:51:27;7.80;99.90
24146;DHT22;12308;50.948;4.706;2023-02-10T17:53:53;7.80;99.90
24146;DHT22;12308;50.948;4.706;2023-02-10T17:56:20;7.80;99.90
24146;DHT22;12308;50.948;4.706;2023-02-10T17:58:46;7.80;99.90
24146;DHT22;12308;50.948;4.706;2023-02-10T18:01:38;8.00;99.90
24146;DHT22;12308;50.948;4.706;2023-02-10T18:04:04;8.00;99.90